Time;durP1;ratioP1;P1;durP2;ratioP2;P2;SDS_P1;SDS_P2;PMS_P1;PMS_P2;Temp;Humidity;BMP_temperature;BMP_pressure;BME280_temperature;BME280_humidity;BME280_pressure;Samples;Min_cycle;Max_cycle;Signal;HPM_P1;HPM_P2
2021/12/06 00:01:10;;;;;;;8.13;3.42;;;;;;;3.63;100.00;100658.09;4989518;28;20565;-67
2021/12/06 00:03:45;;;;;;;9.20;4.00;;;;;;;3.69;100.00;100656.06;4986970;28;20042;-66
2021/12/06 00:06:13;;;;;;;11.30;4.07;;;;;;;3.62;100.00;100661.81;4990700;28;20137;-65
2021/12/06 00:08:39;;;;;;;9.10;3.95;;;;;;;3.61;100.00;100664.81;4994095;28;20037;-66
2021/12/06 00:11:08;;;;;;;13.73;5.20;;;;;;;3.64;100.00;100669.50;4976262;28;20042;-65
2021/12/06 00:13:39;;;;;;;6.97;3.45;;;;;;;3.64;100.00;100667.63;4991739;28;20066;-65
2021/12/06 00:16:10;;;;;;;16.38;4.72;;;;;;;3.63;100.00;100671.41;4999898;28;20038;-66
2021/12/06 00:18:38;;;;;;;7.45;4.00;;;;;;;3.64;100.00;100664.16;4994691;28;20034;-67
2021/12/06 00:21:05;;;;;;;7.00;3.40;;;;;;;3.64;100.00;100667.63;4991003;28;20394;-65
2021/12/06 00:23:30;;;;;;;12.18;3.63;;;;;;;3.61;100.00;100657.59;5000704;28;20128;-66
2021/12/06 00:25:56;;;;;;;8.98;3.72;;;;;;;3.62;100.00;100659.16;4995163;28;20122;-65
2021/12/06 00:28:23;;;;;;;15.85;4.47;;;;;;;3.61;100.00;100662.94;4993830;28;20030;-65
2021/12/06 00:30:49;;;;;;;13.00;5.55;;;;;;;3.61;100.00;100668.25;5004517;28;20356;-65
2021/12/06 00:33:14;;;;;;;12.07;4.57;;;;;;;3.63;100.00;100670.59;4993566;28;20165;-65
2021/12/06 00:35:40;;;;;;;11.18;4.97;;;;;;;3.63;100.00;100671.41;4992955;28;20034;-66
2021/12/06 00:38:05;;;;;;;13.98;4.50;;;;;;;3.63;100.00;100674.06;4992800;28;20065;-66
2021/12/06 00:40:37;;;;;;;13.25;5.35;;;;;;;3.61;100.00;100672.78;4993750;28;20037;-65
2021/12/06 00:43:06;;;;;;;10.50;4.53;;;;;;;3.56;100.00;100681.69;4992977;28;20038;-68
2021/12/06 00:45:32;;;;;;;7.93;4.15;;;;;;;3.59;100.00;100678.41;5015174;28;20081;-65
2021/12/06 00:47:58;;;;;;;9.90;4.47;;;;;;;3.62;100.00;100687.66;4996318;28;20395;-66
2021/12/06 00:50:28;;;;;;;8.48;3.50;;;;;;;3.61;100.00;100686.09;4993918;28;20045;-65
2021/12/06 00:52:54;;;;;;;11.25;3.53;;;;;;;3.60;100.00;100682.63;4992978;28;20466;-67
2021/12/06 00:55:21;;;;;;;10.20;3.70;;;;;;;3.56;100.00;100675.59;5020105;28;20073;-65
2021/12/06 00:57:49;;;;;;;13.50;4.13;;;;;;;3.58;100.00;100686.72;5000290;28;20023;-65
2021/12/06 01:00:27;;;;;;;15.43;5.38;;;;;;;3.59;100.00;100682.94;5004108;28;20084;-66
2021/12/06 01:02:54;;;;;;;15.43;4.97;;;;;;;3.57;100.00;100688.59;4994075;28;20491;-66
2021/12/06 01:05:23;;;;;;;17.75;4.85;;;;;;;3.60;100.00;100690.63;4993760;28;20096;-65
2021/12/06 01:07:50;;;;;;;14.13;5.18;;;;;;;3.61;100.00;100697.53;4998110;28;20065;-66
2021/12/06 01:10:16;;;;;;;12.25;4.53;;;;;;;3.57;100.00;100696.56;4992801;28;20035;-66
2021/12/06 01:12:42;;;;;;;10.02;3.95;;;;;;;3.59;100.00;100709.56;4998010;28;20184;-66
2021/12/06 01:15:08;;;;;;;9.98;4.47;;;;;;;3.53;100.00;100711.59;4993541;28;20140;-65
2021/12/06 01:17:34;;;;;;;6.90;3.20;;;;;;;3.44;100.00;100702.78;4992350;28;20030;-66
2021/12/06 01:20:00;;;;;;;11.95;4.78;;;;;;;3.45;100.00;100708.88;4991271;28;20049;-65
2021/12/06 01:22:32;;;;;;;7.13;3.72;;;;;;;3.44;100.00;100694.81;4985406;28;20133;-66
2021/12/06 01:25:03;;;;;;;10.30;4.20;;;;;;;3.40;100.00;100701.81;4994040;28;20044;-65
2021/12/06 01:30:16;;;;;;;10.50;4.25;;;;;;;3.31;100.00;100716.19;5009402;28;20056;-65
2021/12/06 01:40:42;;;;;;;11.95;4.82;;;;;;;3.10;100.00;100723.84;4988630;28;20092;-65
2021/12/06 01:43:09;;;;;;;11.05;3.50;;;;;;;3.07;100.00;100724.47;4998711;28;20137;-65
2021/12/06 01:45:34;;;;;;;10.73;4.35;;;;;;;3.02;100.00;100729.13;4991542;28;20118;-65
2021/12/06 01:48:00;;;;;;;10.57;3.97;;;;;;;3.00;100.00;100734.72;4992030;28;20038;-65
2021/12/06 01:50:29;;;;;;;11.65;3.92;;;;;;;3.00;100.00;100748.03;4987528;28;20129;-66
2021/12/06 01:52:59;;;;;;;12.15;4.53;;;;;;;3.00;100.00;100742.69;5007720;28;20034;-68
2021/12/06 01:55:29;;;;;;;12.60;3.70;;;;;;;2.96;100.00;100749.72;4996108;28;20034;-66
2021/12/06 01:57:56;;;;;;;7.15;3.72;;;;;;;2.94;100.00;100743.13;4991553;28;20062;-65
2021/12/06 02:00:29;;;;;;;10.02;3.95;;;;;;;2.89;100.00;100738.72;4988155;28;20022;-66
2021/12/06 02:03:00;;;;;;;10.10;3.90;;;;;;;2.87;100.00;100742.75;4993738;28;20033;-66
2021/12/06 02:05:33;;;;;;;13.45;4.00;;;;;;;2.85;100.00;100744.94;4994636;28;20061;-66
2021/12/06 02:07:59;;;;;;;10.68;5.00;;;;;;;2.82;100.00;100733.03;4991182;28;20068;-66
2021/12/06 02:10:27;;;;;;;10.98;4.32;;;;;;;2.80;100.00;100734.41;4995630;28;20038;-65
2021/12/06 02:12:54;;;;;;;9.93;4.20;;;;;;;2.75;100.00;100743.28;4991334;28;20481;-65
2021/12/06 02:15:36;;;;;;;7.97;4.00;;;;;;;2.72;100.00;100751.88;4994809;28;20069;-66
2021/12/06 02:18:10;;;;;;;7.78;4.45;;;;;;;2.67;100.00;100744.03;4989529;28;20042;-66
2021/12/06 02:20:43;;;;;;;9.10;3.83;;;;;;;2.65;100.00;100754.16;4991194;28;20455;-65
2021/12/06 02:23:09;;;;;;;9.63;3.78;;;;;;;2.69;100.00;100745.28;4994433;28;20497;-66
2021/12/06 02:25:35;;;;;;;8.35;3.78;;;;;;;2.69;100.00;100741.84;5010032;28;20778;-65
2021/12/06 02:28:07;;;;;;;15.02;4.78;;;;;;;2.71;100.00;100737.78;4986793;28;20040;-66
2021/12/06 02:30:33;;;;;;;10.45;4.53;;;;;;;2.70;100.00;100741.53;4990440;28;20035;-66
2021/12/06 02:32:59;;;;;;;11.25;4.40;;;;;;;2.70;100.00;100738.09;4988977;28;20034;-65
2021/12/06 02:35:25;;;;;;;8.85;4.00;;;;;;;2.68;100.00;100748.25;4989499;28;20117;-66
2021/12/06 02:37:56;;;;;;;7.35;4.28;;;;;;;2.67;100.00;100736.06;4989543;28;20450;-65
2021/12/06 02:40:26;;;;;;;9.30;4.45;;;;;;;2.63;100.00;100737.72;4987658;28;20121;-66
2021/12/06 02:42:53;;;;;;;13.93;4.18;;;;;;;2.62;100.00;100725.50;4997966;28;20046;-66
2021/12/06 02:45:21;;;;;;;11.73;4.93;;;;;;;2.63;100.00;100733.19;4984714;28;20026;-66
2021/12/06 02:47:52;;;;;;;9.70;4.60;;;;;;;2.64;100.00;100748.06;4990502;28;20434;-66
2021/12/06 02:50:27;;;;;;;13.38;5.07;;;;;;;2.64;100.00;100744.59;4999634;28;20126;-66
2021/12/06 02:52:54;;;;;;;7.43;3.90;;;;;;;2.65;100.00;100748.84;4986366;28;20030;-66
2021/12/06 02:58:16;;;;;;;10.73;4.57;;;;;;;2.60;100.00;100770.22;4990496;28;20031;-66
2021/12/06 03:00:50;;;;;;;13.38;3.95;;;;;;;2.56;100.00;100763.91;4986806;28;20034;-66
2021/12/06 03:03:18;;;;;;;7.78;3.63;;;;;;;2.60;100.00;100762.22;5001314;23;20042;-64
2021/12/06 03:05:45;;;;;;;10.88;4.55;;;;;;;2.59;100.00;100768.66;5008550;28;20069;-65
2021/12/06 03:08:11;;;;;;;9.80;4.22;;;;;;;2.56;100.00;100769.22;5008039;28;20049;-64
2021/12/06 03:10:40;;;;;;;8.80;5.07;;;;;;;2.51;100.00;100766.69;5006743;28;20445;-65
2021/12/06 03:13:05;;;;;;;8.30;3.55;;;;;;;2.44;100.00;100761.00;4995543;28;20121;-64
2021/12/06 03:15:31;;;;;;;6.82;3.40;;;;;;;2.46;100.00;100767.56;4982939;28;20157;-64
2021/12/06 03:17:57;;;;;;;8.80;3.42;;;;;;;2.48;100.00;100764.59;4982321;28;20037;-64
2021/12/06 03:20:24;;;;;;;13.57;4.75;;;;;;;2.47;100.00;100768.38;4989542;28;20037;-65
2021/12/06 03:22:50;;;;;;;10.20;3.88;;;;;;;2.45;100.00;100757.25;4989867;28;20077;-66
2021/12/06 03:25:17;;;;;;;4.72;2.88;;;;;;;2.47;100.00;100769.16;4989683;28;20038;-65
2021/12/06 03:27:44;;;;;;;14.57;5.38;;;;;;;2.48;100.00;100767.25;4984799;28;20046;-64
2021/12/06 03:30:12;;;;;;;10.85;3.65;;;;;;;2.49;100.00;100766.19;5001303;28;20065;-65
2021/12/06 03:32:38;;;;;;;11.80;4.40;;;;;;;2.46;100.00;100767.56;4988920;28;20030;-66
2021/12/06 03:35:07;;;;;;;8.52;4.15;;;;;;;2.47;100.00;100771.81;4990443;28;20041;-65
2021/12/06 03:37:32;;;;;;;9.05;4.10;;;;;;;2.48;100.00;100770.72;4988994;28;20034;-64
2021/12/06 03:39:58;;;;;;;9.38;4.28;;;;;;;2.50;100.00;100778.38;4990100;28;20513;-65
2021/12/06 03:42:27;;;;;;;12.73;4.00;;;;;;;2.55;100.00;100773.78;4991299;28;20045;-67
2021/12/06 03:44:53;;;;;;;8.30;3.17;;;;;;;2.56;100.00;100775.34;4977659;28;20514;-65
2021/12/06 03:47:30;;;;;;;8.35;3.65;;;;;;;2.53;100.00;100780.47;4984581;28;20034;-67
2021/12/06 03:49:58;;;;;;;9.05;3.85;;;;;;;2.51;100.00;100793.25;4996803;28;20038;-66
2021/12/06 03:52:25;;;;;;;11.43;4.80;;;;;;;2.50;100.00;100794.31;4990896;28;20031;-66
2021/12/06 03:54:52;;;;;;;17.70;4.60;;;;;;;2.53;100.00;100801.72;4990221;28;20078;-66
2021/12/06 03:57:19;;;;;;;18.98;4.15;;;;;;;2.58;100.00;100790.97;4986659;28;20487;-66
2021/12/06 03:59:45;;;;;;;6.15;3.53;;;;;;;2.58;100.00;100793.63;4989642;28;20065;-66
2021/12/06 04:02:12;;;;;;;9.75;4.28;;;;;;;2.63;100.00;100798.84;4991088;28;20380;-66
2021/12/06 04:04:41;;;;;;;11.48;3.78;;;;;;;2.60;100.00;100808.22;4984000;28;20042;-66
2021/12/06 04:07:08;;;;;;;11.82;4.10;;;;;;;2.57;100.00;100808.81;4984087;28;20038;-67
2021/12/06 04:09:36;;;;;;;9.95;3.30;;;;;;;2.59;100.00;100819.91;4989336;28;20446;-65
2021/12/06 04:12:06;;;;;;;6.65;3.58;;;;;;;2.60;100.00;100820.69;4983832;28;20096;-66
2021/12/06 04:14:34;;;;;;;7.95;2.97;;;;;;;2.63;100.00;100812.91;4989530;28;20034;-65
2021/12/06 04:17:00;;;;;;;6.90;3.42;;;;;;;2.63;100.00;100810.25;4982220;28;20081;-65
2021/12/06 04:19:26;;;;;;;12.32;3.53;;;;;;;2.59;100.00;100813.81;4985921;28;20033;-64
2021/12/06 04:21:52;;;;;;;8.35;3.85;;;;;;;2.55;100.00;100812.84;4990784;28;20018;-66
2021/12/06 04:24:18;;;;;;;10.57;4.15;;;;;;;2.57;100.00;100808.81;4991561;28;20068;-66
2021/12/06 04:26:47;;;;;;;7.65;3.58;;;;;;;2.58;100.00;100815.69;4992533;28;20460;-65
2021/12/06 04:29:14;;;;;;;8.75;3.72;;;;;;;2.67;100.00;100818.44;4993222;28;20042;-66
2021/12/06 04:31:47;;;;;;;10.55;3.72;;;;;;;2.64;100.00;100822.47;4989797;28;20045;-64
2021/12/06 04:34:15;;;;;;;15.50;4.53;;;;;;;2.55;100.00;100818.16;5000629;28;20027;-65
2021/12/06 04:36:43;;;;;;;7.40;3.05;;;;;;;2.59;100.00;100827.13;4984045;28;20027;-65
2021/12/06 04:39:12;;;;;;;7.55;3.40;;;;;;;2.63;100.00;100817.47;4985099;28;20049;-65
2021/12/06 04:41:38;;;;;;;12.13;4.53;;;;;;;2.59;100.00;100833.19;4987338;28;20034;-66
2021/12/06 04:44:06;;;;;;;7.20;2.70;;;;;;;2.63;100.00;100830.75;4987113;28;20058;-66
2021/12/06 04:46:32;;;;;;;13.82;4.05;;;;;;;2.60;100.00;100834.78;4979420;28;20030;-65
2021/12/06 04:48:57;;;;;;;8.80;3.65;;;;;;;2.63;100.00;100844.03;4993625;28;20080;-65
2021/12/06 04:51:24;;;;;;;9.18;4.38;;;;;;;2.61;100.00;100843.56;4988461;28;20019;-65
2021/12/06 04:53:51;;;;;;;5.80;3.00;;;;;;;2.58;100.00;100836.16;4990648;28;20088;-65
2021/12/06 04:56:24;;;;;;;7.25;3.42;;;;;;;2.56;100.00;100839.13;4994613;28;20117;-65
2021/12/06 04:58:58;;;;;;;11.07;3.85;;;;;;;2.60;100.00;100842.75;4977708;28;20493;-65
2021/12/06 05:01:28;;;;;;;13.10;3.83;;;;;;;2.67;100.00;100840.47;5008001;28;20049;-65
2021/12/06 05:03:57;;;;;;;8.13;3.63;;;;;;;2.71;100.00;100853.94;4977291;28;20070;-66
2021/12/06 05:06:29;;;;;;;10.32;3.55;;;;;;;2.75;100.00;100855.72;4987257;28;20443;-65
2021/12/06 05:08:59;;;;;;;7.72;3.28;;;;;;;2.75;100.00;100863.69;5000528;28;20141;-65
2021/12/06 05:11:27;;;;;;;6.40;3.60;;;;;;;2.81;100.00;100872.34;4991488;28;20030;-65
2021/12/06 05:13:56;;;;;;;8.85;3.92;;;;;;;2.85;100.00;100870.69;4991575;28;20026;-65
2021/12/06 05:16:22;;;;;;;5.88;3.13;;;;;;;2.84;100.00;100874.44;4989582;28;20410;-65
2021/12/06 05:18:48;;;;;;;8.50;3.13;;;;;;;2.93;100.00;100872.63;4985491;28;20065;-65
2021/12/06 05:21:14;;;;;;;12.73;2.75;;;;;;;2.89;100.00;100884.97;4992103;28;20033;-65
2021/12/06 05:23:40;;;;;;;12.63;3.75;;;;;;;2.91;100.00;100880.13;4989120;28;20026;-65
2021/12/06 05:26:05;;;;;;;13.13;2.97;;;;;;;2.94;100.00;100886.72;4985274;28;20038;-65
2021/12/06 05:28:38;;;;;;;7.95;2.88;;;;;;;2.96;100.00;100887.22;5007952;28;20042;-65
2021/12/06 05:31:08;;;;;;;8.98;3.03;;;;;;;2.87;100.00;100889.00;4991515;28;20384;-65
2021/12/06 05:33:34;;;;;;;4.63;2.15;;;;;;;2.94;100.00;100879.56;4980824;28;20038;-66
2021/12/06 05:36:02;;;;;;;6.68;2.72;;;;;;;2.96;100.00;100877.34;4985208;28;20455;-66
2021/12/06 05:38:29;;;;;;;3.45;1.83;;;;;;;2.95;100.00;100890.94;4989106;28;20038;-64
2021/12/06 05:40:55;;;;;;;8.63;3.60;;;;;;;2.95;100.00;100902.38;4992203;28;20042;-65
2021/12/06 05:43:21;;;;;;;10.63;3.60;;;;;;;3.01;100.00;100913.69;4990504;28;20045;-66
2021/12/06 05:45:47;;;;;;;6.32;2.58;;;;;;;2.96;100.00;100914.59;4985591;28;20050;-66
2021/12/06 05:48:13;;;;;;;5.80;2.53;;;;;;;2.98;100.00;100907.09;4992633;28;20426;-64
2021/12/06 05:50:38;;;;;;;11.35;3.72;;;;;;;2.94;100.00;100903.47;4991694;28;20050;-65
2021/12/06 05:53:04;;;;;;;4.82;2.92;;;;;;;2.92;100.00;100907.50;4989761;28;20035;-67
2021/12/06 05:55:30;;;;;;;10.73;3.47;;;;;;;2.92;100.00;100915.50;5002532;28;20085;-65
2021/12/06 05:58:00;;;;;;;8.15;2.85;;;;;;;2.96;100.00;100927.13;4991352;28;20411;-66
2021/12/06 06:00:30;;;;;;;6.85;2.97;;;;;;;2.96;100.00;100935.09;4987228;28;20038;-68
2021/12/06 06:02:56;;;;;;;13.40;2.35;;;;;;;3.00;100.00;100936.84;4985554;28;20034;-65
2021/12/06 06:05:21;;;;;;;6.75;3.17;;;;;;;2.98;100.00;100938.25;4984489;28;20038;-64
2021/12/06 06:07:47;;;;;;;4.95;2.63;;;;;;;3.05;100.00;100944.72;4990124;28;20398;-65
2021/12/06 06:10:13;;;;;;;5.57;3.05;;;;;;;3.07;100.00;100953.22;4986571;28;20053;-64
2021/12/06 06:12:39;;;;;;;7.47;2.85;;;;;;;3.02;100.00;100947.22;4991598;28;20515;-64
2021/12/06 06:15:05;;;;;;;4.97;2.33;;;;;;;2.98;100.00;100943.56;4992488;28;20089;-65
2021/12/06 06:17:39;;;;;;;7.80;3.92;;;;;;;3.02;100.00;100937.34;4981809;28;20430;-64
2021/12/06 06:20:06;;;;;;;11.15;3.42;;;;;;;3.00;100.00;100947.47;4988142;28;20081;-66
2021/12/06 06:22:31;;;;;;;5.50;2.85;;;;;;;3.08;100.00;100941.47;4981837;28;20042;-66
2021/12/06 06:24:57;;;;;;;8.55;2.75;;;;;;;3.03;100.00;100946.09;4987745;28;20495;-64
2021/12/06 06:27:22;;;;;;;6.72;2.97;;;;;;;3.05;100.00;100950.06;4989128;28;20062;-65
2021/12/06 06:29:48;;;;;;;4.38;2.55;;;;;;;2.96;100.00;100948.38;4987593;28;20043;-64
2021/12/06 06:32:13;;;;;;;9.55;3.17;;;;;;;2.88;100.00;100955.19;4989314;28;20042;-64
2021/12/06 06:34:39;;;;;;;5.55;2.55;;;;;;;2.86;100.00;100952.03;4988194;28;20026;-64
2021/12/06 06:37:06;;;;;;;7.88;3.08;;;;;;;2.88;100.00;100955.19;4986671;28;20121;-66
2021/12/06 06:39:34;;;;;;;4.20;2.13;;;;;;;2.90;100.00;100968.19;4986811;28;20099;-64
2021/12/06 06:42:00;;;;;;;13.38;3.25;;;;;;;2.92;100.00;100966.81;4988869;28;20407;-64
2021/12/06 06:44:25;;;;;;;5.72;3.00;;;;;;;3.00;100.00;100971.41;4989720;28;20037;-64
2021/12/06 06:46:51;;;;;;;7.43;3.13;;;;;;;2.98;100.00;100964.84;4989109;28;20100;-65
2021/12/06 06:49:17;;;;;;;7.47;2.67;;;;;;;2.97;100.00;100965.91;4990614;28;20121;-67
2021/12/06 06:51:46;;;;;;;5.18;2.42;;;;;;;2.97;100.00;100969.34;4985325;28;20038;-63
2021/12/06 06:54:12;;;;;;;5.72;2.42;;;;;;;3.03;100.00;100968.19;4972297;28;20026;-64
2021/12/06 06:56:38;;;;;;;5.78;2.33;;;;;;;3.01;100.00;100970.34;4990229;28;20042;-64
2021/12/06 06:59:04;;;;;;;6.55;3.05;;;;;;;3.09;100.00;100980.28;4991805;28;20133;-64
2021/12/06 07:01:30;;;;;;;6.32;2.45;;;;;;;3.00;100.00;100978.63;4983429;28;20137;-68
2021/12/06 07:03:56;;;;;;;4.95;2.33;;;;;;;3.01;100.00;100991.63;4983838;28;20498;-67
2021/12/06 07:06:24;;;;;;;4.85;2.28;;;;;;;3.00;100.00;100986.59;4986581;28;20034;-64
2021/12/06 07:08:50;;;;;;;3.90;1.92;;;;;;;2.92;100.00;100982.75;4983518;28;20042;-65
2021/12/06 07:11:16;;;;;;;4.35;2.03;;;;;;;2.92;100.00;100987.28;4989615;28;20041;-65
2021/12/06 07:13:43;;;;;;;2.63;1.60;;;;;;;2.92;100.00;100980.09;4988945;28;20072;-65
2021/12/06 07:16:09;;;;;;;3.00;1.77;;;;;;;2.96;100.00;100981.06;4986756;28;20038;-65
2021/12/06 07:18:35;;;;;;;8.00;3.00;;;;;;;2.97;100.00;100987.19;4988098;28;20053;-65
2021/12/06 07:21:01;;;;;;;5.53;2.83;;;;;;;2.94;100.00;100987.78;4984979;28;20114;-65
2021/12/06 07:23:26;;;;;;;11.85;2.60;;;;;;;2.92;100.00;100988.09;4987863;28;20472;-65
2021/12/06 07:25:52;;;;;;;7.88;2.08;;;;;;;2.93;100.00;100981.66;4986405;28;20042;-65
2021/12/06 07:28:17;;;;;;;4.25;2.17;;;;;;;3.01;100.00;100985.50;4989085;28;20038;-64
2021/12/06 07:30:43;;;;;;;4.85;2.55;;;;;;;2.94;100.00;100985.91;4989868;28;20035;-65
2021/12/06 07:33:09;;;;;;;7.28;1.98;;;;;;;2.95;100.00;100986.69;4989278;28;20117;-65
2021/12/06 07:35:34;;;;;;;3.53;1.58;;;;;;;3.01;100.00;100988.97;4981058;28;20564;-64
2021/12/06 07:38:03;;;;;;;7.53;2.17;;;;;;;2.95;100.00;100986.69;4987958;28;20217;-64
2021/12/06 07:40:29;;;;;;;6.32;3.20;;;;;;;2.96;100.00;100994.38;4987526;28;20477;-64
2021/12/06 07:42:55;;;;;;;3.58;1.92;;;;;;;2.95;100.00;100987.47;4986112;28;20045;-67
2021/12/06 07:45:21;;;;;;;4.50;2.10;;;;;;;3.00;100.00;100989.25;4984561;28;20045;-65
2021/12/06 07:47:47;;;;;;;6.65;2.33;;;;;;;2.98;100.00;100986.13;4990676;28;20122;-63
2021/12/06 07:50:15;;;;;;;6.05;2.35;;;;;;;2.99;100.00;100982.34;4990549;28;20142;-64
2021/12/06 07:52:41;;;;;;;6.10;2.83;;;;;;;3.02;100.00;100981.78;4990516;28;20030;-63
2021/12/06 07:55:10;;;;;;;4.65;2.33;;;;;;;2.97;100.00;100990.63;4989305;28;20062;-64
2021/12/06 07:57:38;;;;;;;5.35;2.42;;;;;;;3.04;100.00;100982.28;4979873;28;20035;-64
2021/12/06 08:00:07;;;;;;;14.18;2.38;;;;;;;2.96;100.00;100986.38;4985679;28;20054;-65
2021/12/06 08:02:33;;;;;;;4.30;2.25;;;;;;;3.03;100.00;100986.00;4988906;28;20034;-65
2021/12/06 08:05:29;;;;;;;8.43;2.20;;;;;;;3.05;100.00;100987.28;4988494;28;20372;-64
2021/12/06 08:07:44;;;;;;;3.28;1.65;;;;;;;3.02;100.00;100979.13;4989009;28;20038;-65
2021/12/06 08:10:09;;;;;;;4.90;2.10;;;;;;;2.99;100.00;100990.34;4989255;28;20038;-64
2021/12/06 08:12:35;;;;;;;4.60;2.05;;;;;;;3.04;100.00;100990.25;4984988;28;20398;-65
2021/12/06 08:15:00;;;;;;;9.93;2.90;;;;;;;2.98;100.00;100989.53;4988756;28;20081;-63
2021/12/06 08:17:26;;;;;;;4.03;2.25;;;;;;;2.99;100.00;100985.81;4989815;28;20129;-63
2021/12/06 08:19:52;;;;;;;5.10;2.33;;;;;;;3.01;100.00;100988.16;4986796;28;20057;-63
2021/12/06 08:22:18;;;;;;;5.18;2.22;;;;;;;2.93;100.00;100983.53;4990663;28;20038;-62
2021/12/06 08:24:43;;;;;;;8.32;1.95;;;;;;;3.00;100.00;100995.34;4979059;28;20479;-63
2021/12/06 08:27:09;;;;;;;6.03;1.52;;;;;;;3.03;100.00;100999.31;4974988;28;20116;-63
2021/12/06 08:29:37;;;;;;;7.97;2.53;;;;;;;3.03;100.00;100993.97;4979833;28;20402;-64
2021/12/06 08:32:03;;;;;;;3.78;1.67;;;;;;;3.01;100.00;100998.81;4985809;28;20034;-64
2021/12/06 08:34:29;;;;;;;7.85;2.78;;;;;;;3.04;100.00;100999.00;4993466;28;20038;-65
2021/12/06 08:36:54;;;;;;;5.50;1.85;;;;;;;3.12;100.00;100998.31;4993655;28;20030;-65
2021/12/06 08:39:20;;;;;;;3.97;1.90;;;;;;;3.06;100.00;100993.41;4993845;28;20053;-63
2021/12/06 08:41:45;;;;;;;4.45;2.42;;;;;;;3.06;100.00;101004.81;4994352;28;20031;-64
2021/12/06 08:44:11;;;;;;;4.35;2.30;;;;;;;3.07;100.00;100993.09;4988120;28;20049;-66
2021/12/06 08:46:39;;;;;;;8.07;2.88;;;;;;;3.04;100.00;100996.34;4982419;28;20030;-63
2021/12/06 08:49:06;;;;;;;3.35;1.52;;;;;;;3.08;100.00;101005.31;4988887;28;20056;-64
2021/12/06 08:51:38;;;;;;;3.85;2.58;;;;;;;3.12;100.00;100994.84;4986841;28;20038;-63
2021/12/06 08:54:06;;;;;;;5.53;2.22;;;;;;;3.12;100.00;100990.34;4987865;28;20030;-63
2021/12/06 08:56:35;;;;;;;2.75;1.77;;;;;;;3.08;100.00;100981.38;4991209;28;20041;-64
2021/12/06 08:59:00;;;;;;;3.63;2.67;;;;;;;3.13;100.00;100973.31;4982361;28;20059;-62
2021/12/06 09:01:27;;;;;;;8.85;2.80;;;;;;;3.18;100.00;100962.53;4990947;28;20457;-62
2021/12/06 09:03:55;;;;;;;2.15;1.23;;;;;;;3.12;100.00;100955.75;4991585;28;20057;-61
2021/12/06 09:06:21;;;;;;;3.08;1.73;;;;;;;3.08;100.00;100952.09;4990103;28;20506;-62
2021/12/06 09:08:50;;;;;;;2.10;1.55;;;;;;;3.04;100.00;100953.03;4985437;28;20038;-62
2021/12/06 09:11:15;;;;;;;6.88;2.25;;;;;;;3.01;100.00;100949.06;4992046;28;20069;-63
2021/12/06 09:13:42;;;;;;;2.00;1.45;;;;;;;3.02;100.00;100955.19;4987116;28;20129;-63
2021/12/06 09:16:10;;;;;;;5.10;1.98;;;;;;;3.07;100.00;100969.16;4992178;28;20080;-65
2021/12/06 09:18:39;;;;;;;9.05;3.92;;;;;;;3.20;100.00;100968.34;4990867;28;20030;-65
2021/12/06 09:21:08;;;;;;;3.25;2.15;;;;;;;3.26;100.00;100966.38;4991557;28;20061;-65
2021/12/06 09:23:34;;;;;;;7.43;2.55;;;;;;;3.27;100.00;100963.41;4986602;28;20030;-65
2021/12/06 09:26:00;;;;;;;5.50;2.92;;;;;;;3.38;100.00;100967.47;4984831;28;20754;-65
2021/12/06 09:28:28;;;;;;;7.00;2.53;;;;;;;3.39;100.00;100961.03;4986642;28;20123;-65
2021/12/06 09:30:54;;;;;;;8.60;2.35;;;;;;;3.35;100.00;100962.72;4990979;28;20690;-64
2021/12/06 09:33:21;;;;;;;9.35;2.92;;;;;;;3.40;100.00;100964.50;4990757;28;20045;-65
2021/12/06 09:35:48;;;;;;;7.40;2.50;;;;;;;3.44;100.00;100968.91;4992324;28;20069;-63
2021/12/06 09:38:17;;;;;;;12.07;3.08;;;;;;;3.44;100.00;100968.13;4988561;28;20042;-65
2021/12/06 09:40:46;;;;;;;7.35;2.97;;;;;;;3.44;100.00;100962.81;4991515;28;20027;-65
2021/12/06 09:43:14;;;;;;;7.53;2.40;;;;;;;3.44;100.00;100968.91;4990671;28;20414;-65
2021/12/06 09:45:41;;;;;;;4.70;2.53;;;;;;;3.51;100.00;100966.63;4984007;28;20030;-64
2021/12/06 09:48:07;;;;;;;8.02;2.85;;;;;;;3.49;100.00;100976.78;4986266;28;20052;-64
2021/12/06 09:50:38;;;;;;;5.93;2.55;;;;;;;3.47;100.00;100973.63;4985076;28;20034;-63
2021/12/06 09:53:08;;;;;;;3.53;2.00;;;;;;;3.50;100.00;100982.91;4987568;28;20034;-65
2021/12/06 09:55:34;;;;;;;7.70;2.72;;;;;;;3.44;100.00;100984.09;4990610;28;20022;-64
2021/12/06 09:58:01;;;;;;;12.63;3.30;;;;;;;3.48;100.00;100985.84;4990475;28;20701;-64
2021/12/06 10:00:31;;;;;;;6.95;2.90;;;;;;;3.49;100.00;100982.09;4987903;28;20030;-65
2021/12/06 10:02:57;;;;;;;5.97;2.95;;;;;;;3.54;100.00;100989.22;4989337;28;20093;-64
2021/12/06 10:05:29;;;;;;;5.43;2.65;;;;;;;3.60;100.00;100980.78;4990937;28;20038;-64
2021/12/06 10:07:58;;;;;;;7.22;2.97;;;;;;;3.53;100.00;100983.09;4988294;28;20126;-64
2021/12/06 10:10:25;;;;;;;8.00;3.38;;;;;;;3.43;100.00;100975.31;4990183;28;20061;-65
2021/12/06 10:12:52;;;;;;;10.30;3.17;;;;;;;3.46;100.00;100980.06;4990254;28;20042;-65
2021/12/06 10:15:19;;;;;;;8.30;2.63;;;;;;;3.52;100.00;100981.50;4990965;28;20410;-64
2021/12/06 10:17:45;;;;;;;7.82;3.13;;;;;;;3.51;100.00;100969.28;4985901;28;20030;-66
2021/12/06 10:20:11;;;;;;;8.73;3.38;;;;;;;3.56;100.00;100981.72;4991261;28;20109;-65
2021/12/06 10:22:37;;;;;;;8.73;4.13;;;;;;;3.65;100.00;100986.03;4987543;28;20041;-65
2021/12/06 10:25:05;;;;;;;6.47;2.83;;;;;;;3.63;100.00;100984.75;4988287;28;20388;-65
2021/12/06 10:27:32;;;;;;;6.80;2.67;;;;;;;3.67;100.00;100981.19;4981899;28;20037;-64
2021/12/06 10:30:04;;;;;;;9.02;3.10;;;;;;;3.57;100.00;100980.59;4982296;28;20061;-65
2021/12/06 10:32:36;;;;;;;9.52;3.20;;;;;;;3.61;100.00;100987.72;4992411;28;20030;-65
2021/12/06 10:35:15;;;;;;;8.43;3.65;;;;;;;3.45;100.00;100991.78;4991011;28;20038;-66
2021/12/06 10:37:45;;;;;;;8.63;2.60;;;;;;;3.44;100.00;100984.09;4986773;28;20030;-65
2021/12/06 10:40:18;;;;;;;7.60;2.97;;;;;;;3.48;100.00;100999.16;4990381;28;20034;-64
2021/12/06 10:42:46;;;;;;;4.22;2.38;;;;;;;3.40;100.00;100991.91;4990654;28;20034;-65
2021/12/06 10:45:17;;;;;;;9.55;3.20;;;;;;;3.44;100.00;100984.88;4987567;28;20037;-66
2021/12/06 10:48:02;;;;;;;5.63;2.50;;;;;;;3.49;100.00;100984.78;4988512;28;20062;-65
2021/12/06 10:50:28;;;;;;;9.25;3.25;;;;;;;3.59;100.00;100970.44;4988068;28;20070;-65
2021/12/06 10:52:56;;;;;;;9.18;3.60;;;;;;;3.48;100.00;100964.56;5003016;28;20069;-65
2021/12/06 10:55:27;;;;;;;5.13;2.65;;;;;;;3.51;100.00;100948.00;4990287;28;20446;-65
2021/12/06 10:57:55;;;;;;;7.63;2.75;;;;;;;3.53;100.00;100943.16;4986737;28;20061;-66
2021/12/06 11:00:36;;;;;;;4.80;2.92;;;;;;;3.61;100.00;100929.13;4989689;28;20026;-66
2021/12/06 11:03:03;;;;;;;12.13;3.57;;;;;;;3.61;100.00;100915.81;4989244;28;20049;-65
2021/12/06 11:05:32;;;;;;;10.27;3.72;;;;;;;3.52;100.00;100922.16;4979152;28;20044;-66
2021/12/06 11:08:18;;;;;;;8.20;3.28;;;;;;;3.56;100.00;100915.94;4987234;28;20038;-66
2021/12/06 11:10:49;;;;;;;9.07;4.43;;;;;;;3.59;100.00;100920.66;4977800;28;20073;-66
2021/12/06 11:13:47;;;;;;;11.60;3.00;;;;;;;3.43;100.00;100908.00;4994027;28;20589;-65
2021/12/06 11:16:27;;;;;;;5.97;2.75;;;;;;;3.32;100.00;100901.31;4978783;28;20501;-66
2021/12/06 11:18:58;;;;;;;6.73;2.87;;;;;;;3.37;100.00;100899.34;4984168;28;20030;-65
2021/12/06 11:21:30;;;;;;;7.82;3.42;;;;;;;3.38;100.00;100894.81;4985246;28;20057;-65
2021/12/06 11:24:00;;;;;;;5.68;3.10;;;;;;;3.42;100.00;100885.94;4989564;28;20056;-66
2021/12/06 11:26:30;;;;;;;6.60;2.80;;;;;;;3.40;100.00;100885.44;4991239;28;20034;-66
2021/12/06 11:29:03;;;;;;;8.20;2.80;;;;;;;3.43;100.00;100890.16;4985058;28;20110;-65
2021/12/06 11:31:29;;;;;;;8.27;3.72;;;;;;;3.31;100.00;100899.75;4981778;28;20054;-65
2021/12/06 11:34:00;;;;;;;7.63;3.45;;;;;;;3.43;100.00;100903.47;4988717;28;20069;-65
2021/12/06 11:36:27;;;;;;;9.77;4.25;;;;;;;3.47;100.00;100899.13;4978621;28;20035;-66
2021/12/06 11:38:59;;;;;;;8.88;3.85;;;;;;;3.38;100.00;100902.78;4974568;28;20030;-64